Change the Weather History Date:

Friday, November 23, 2012

  Actual Average Record
Temperature  
Mean Temperature 28 °F -  
Max Temperature 38 °F 43 °F 65 °F (1974)
Min Temperature 19 °F 23 °F 1 °F (2013)
Degree Days  
Heating Degree Days 36    
Moisture  
Dew Point 16 °F    
Average Humidity 58    
Maximum Humidity 78    
Minimum Humidity 43    
Precipitation  
Precipitation 0.00 in - - ()
Sea Level Pressure  
Sea Level Pressure 30.34 in    
Wind  
Wind Speed 18 mph (NW)    
Max Wind Speed 28 mph    
Max Gust Speed 37 mph    
Visibility 10 miles    
Events      
Averages and records for this station are not official NWS values.
T = Trace of Precipitation, MM = Missing Value Source: NWS Daily Summary

Daily Weather History Graph

Daily Weather History Graph

Search for Another Location

Airport or City:

Trip Planner

Search our weather history database for the weather conditions in past years. The results will help you decide how hot, cold, wet, or windy it might be!

Date:

Astronomy

Nov. 23, 2012 Rise Set
Actual Time 7:16 AM CST 4:49 PM CST
Civil Twilight 6:45 AM CST 5:20 PM CST
Nautical Twilight 6:11 AM CST 5:54 PM CST
Astronomical Twilight 5:38 AM CST 6:27 PM CST
Moon 2:07 PM CST (11/23) 2:32 AM CST (11/23)
Length of Visible Light 10h 34m
Length of Day
9h 33m
Waxing Gibbous, 80% of the Moon is Illuminated
Nov 23
Waxing Gibbous
Nov 28
Full
Dec 6
Last Quarter
Dec 13
New
Dec 19
First Quarter

Hourly Weather History & Observations

Time (CST) Temp. Windchill Dew Point Humidity Pressure Visibility Wind Dir Wind Speed Gust Speed Precip Events Conditions
12:15 AM 38.3 °F 30.5 °F 27.1 °F 64% 30.16 in 10.0 mi WNW 12.7 mph 19.6 mph N/A   Overcast
12:35 AM 38.7 °F 30.5 °F 24.6 °F 57% 30.16 in 10.0 mi NW 13.8 mph 19.6 mph N/A   Overcast
12:55 AM 38.7 °F 30.5 °F 24.3 °F 56% 30.16 in 10.0 mi WNW 13.8 mph 19.6 mph N/A   Overcast
1:15 AM 38.3 °F 28.4 °F 23.5 °F 55% 30.17 in 10.0 mi NW 19.6 mph 28.8 mph N/A   Overcast
1:35 AM 37.8 °F 26.3 °F 22.3 °F 54% 30.18 in 10.0 mi NW 25.3 mph 33.4 mph N/A   Overcast
1:55 AM 36.3 °F 25.2 °F 21.0 °F 54% 30.19 in 10.0 mi NW 21.9 mph 31.1 mph N/A   Overcast
2:15 AM 35.8 °F 23.7 °F 19.4 °F 51% 30.20 in 10.0 mi NW 25.3 mph 33.4 mph N/A   Overcast
2:35 AM 35.1 °F 23.5 °F 17.8 °F 49% 30.21 in 10.0 mi NW 21.9 mph 31.1 mph N/A   Overcast
2:55 AM 32.5 °F 18.8 °F 16.9 °F 53% 30.23 in 10.0 mi WNW 27.6 mph 33.4 mph N/A   Mostly Cloudy
3:15 AM 32.5 °F 19.4 °F 18.9 °F 57% 30.23 in 10.0 mi WNW 25.3 mph 35.7 mph N/A   Mostly Cloudy
3:35 AM 32.0 °F 18.1 °F 18.7 °F 58% 30.24 in 10.0 mi WNW 27.6 mph 35.7 mph N/A   Overcast
3:55 AM 32.0 °F 19.5 °F 18.7 °F 58% 30.24 in 10.0 mi NW 21.9 mph 32.2 mph N/A   Overcast
4:15 AM 32.0 °F 19.8 °F 18.5 °F 58% 30.24 in 10.0 mi NW 20.7 mph 33.4 mph N/A   Overcast
4:35 AM 31.3 °F 18.9 °F 17.6 °F 57% 30.26 in 10.0 mi NW 20.7 mph 33.4 mph N/A   Mostly Cloudy
4:55 AM 30.9 °F 19.1 °F 17.8 °F 58% 30.26 in 10.0 mi NW 18.4 mph 27.6 mph N/A   Mostly Cloudy
5:15 AM 30.6 °F 17.6 °F 17.2 °F 58% 30.27 in 10.0 mi NW 21.9 mph 32.2 mph N/A   Mostly Cloudy
5:35 AM 28.6 °F 15.6 °F 16.3 °F 60% 30.28 in 10.0 mi NW 19.6 mph 28.8 mph N/A   Scattered Clouds
5:55 AM 28.0 °F 15.7 °F 16.3 °F 62% 30.29 in 10.0 mi NW 17.3 mph 21.9 mph N/A   Clear
6:15 AM 27.7 °F 15.2 °F 16.3 °F 62% 30.29 in 10.0 mi WNW 17.3 mph 24.2 mph N/A   Clear
6:35 AM 27.3 °F 13.6 °F 16.2 °F 63% 30.29 in 10.0 mi NW 20.7 mph 27.6 mph N/A   Clear
6:55 AM 27.1 °F 14.1 °F 16.2 °F 63% 30.31 in 10.0 mi NW 18.4 mph 27.6 mph N/A   Clear
7:15 AM 26.6 °F 12.4 °F 16.0 °F 64% 30.31 in 10.0 mi NW 21.9 mph 33.4 mph N/A   Clear
7:35 AM 26.6 °F 12.4 °F 16.2 °F 65% 30.32 in 10.0 mi NW 21.9 mph 29.9 mph N/A   Clear
7:55 AM 26.6 °F 14.7 °F 16.7 °F 66% 30.33 in 10.0 mi WNW 15.0 mph 20.7 mph N/A   Scattered Clouds
8:15 AM 27.0 °F 13.5 °F 16.7 °F 65% 30.34 in 10.0 mi NW 19.6 mph 23.0 mph N/A   Mostly Cloudy
8:35 AM 27.5 °F 13.9 °F 16.5 °F 63% 30.35 in 10.0 mi NW 20.7 mph 28.8 mph N/A   Overcast
8:55 AM 27.7 °F 12.6 °F 15.8 °F 61% 30.36 in 10.0 mi NW 26.5 mph 36.8 mph N/A   Overcast
9:15 AM 28.0 °F 13.6 °F 15.4 °F 59% 30.37 in 10.0 mi NW 24.2 mph 34.5 mph N/A   Overcast
9:35 AM 28.0 °F 13.9 °F 14.9 °F 58% 30.38 in 10.0 mi NW 23.0 mph 28.8 mph N/A   Overcast
9:55 AM 28.0 °F 13.6 °F 14.5 °F 57% 30.39 in 10.0 mi WNW 24.2 mph 31.1 mph N/A   Overcast
10:15 AM 28.2 °F 15.2 °F 14.9 °F 57% 30.40 in 10.0 mi WNW 19.6 mph 31.1 mph N/A   Overcast
10:35 AM 28.9 °F 14.5 °F 14.5 °F 55% 30.40 in 10.0 mi NW 25.3 mph 31.1 mph N/A   Overcast
10:55 AM 29.1 °F 15.7 °F 14.0 °F 53% 30.40 in 10.0 mi NW 21.9 mph 29.9 mph N/A   Overcast
11:15 AM 31.5 °F 18.5 °F 14.4 °F 49% 30.40 in 10.0 mi NW 23.0 mph 27.6 mph N/A   Overcast
11:35 AM 31.3 °F 18.5 °F 14.0 °F 49% 30.40 in 10.0 mi NNW 21.9 mph 28.8 mph N/A   Mostly Cloudy
12:15 PM 32.4 °F 20.0 °F 13.8 °F 46% 30.39 in 10.0 mi NNW 21.9 mph 28.8 mph N/A   Scattered Clouds
12:35 PM 33.6 °F 21.9 °F 13.8 °F 44% 30.38 in 10.0 mi NW 20.7 mph 24.2 mph N/A   Clear
12:55 PM 33.6 °F 22.9 °F 13.6 °F 44% 30.38 in 10.0 mi NW 17.3 mph 26.5 mph N/A   Clear
1:15 PM 33.8 °F 22.2 °F 13.5 °F 43% 30.38 in 10.0 mi NW 20.7 mph 27.6 mph N/A   Clear
1:35 PM 34.0 °F 22.7 °F 13.8 °F 44% 30.38 in 10.0 mi NW 19.6 mph 26.5 mph N/A   Clear
1:55 PM 33.8 °F 22.8 °F 13.6 °F 44% 30.38 in 10.0 mi NW 18.4 mph 28.8 mph N/A   Clear
2:15 PM 34.0 °F 22.7 °F 13.8 °F 44% 30.38 in 10.0 mi NW 19.6 mph 27.6 mph N/A   Clear
2:35 PM 34.0 °F 23.0 °F 13.6 °F 43% 30.38 in 10.0 mi NW 18.4 mph 28.8 mph N/A   Clear
2:55 PM 33.8 °F 22.5 °F 13.5 °F 43% 30.39 in 10.0 mi NW 19.6 mph 27.6 mph N/A   Clear
3:15 PM 33.6 °F 22.9 °F 13.5 °F 44% 30.39 in 10.0 mi NW 17.3 mph 26.5 mph N/A   Clear
3:35 PM 33.3 °F 21.8 °F 13.5 °F 44% 30.39 in 10.0 mi NNW 19.6 mph 25.3 mph N/A   Clear
3:55 PM 32.9 °F 21.6 °F 13.8 °F 45% 30.40 in 10.0 mi NW 18.4 mph 23.0 mph N/A   Clear
4:15 PM 32.0 °F 20.5 °F 13.8 °F 47% 30.39 in 10.0 mi NW 18.4 mph - N/A   Clear
4:35 PM 31.8 °F 21.4 °F 13.8 °F 47% 30.40 in 10.0 mi NW 15.0 mph - N/A   Clear
4:55 PM 31.1 °F 21.9 °F 13.8 °F 49% 30.40 in 10.0 mi NW 11.5 mph - N/A   Clear
5:15 PM 30.4 °F 21.5 °F 14.0 °F 51% 30.40 in 10.0 mi NW 10.4 mph - N/A   Clear
5:35 PM 29.3 °F 20.2 °F 14.0 °F 53% 30.40 in 10.0 mi NW 10.4 mph - N/A   Clear
5:55 PM 29.1 °F 20.6 °F 14.2 °F 54% 30.40 in 10.0 mi NW 9.2 mph - N/A   Clear
6:15 PM 28.4 °F 19.7 °F 14.4 °F 56% 30.40 in 10.0 mi NW 9.2 mph - N/A   Clear
6:35 PM 27.9 °F 19.8 °F 14.7 °F 58% 30.41 in 10.0 mi NW 8.1 mph - N/A   Clear
6:55 PM 27.1 °F 18.9 °F 14.9 °F 60% 30.41 in 10.0 mi NW 8.1 mph - N/A   Clear
7:15 PM 25.7 °F 18.0 °F 14.9 °F 64% 30.41 in 10.0 mi WNW 6.9 mph - N/A   Clear
7:35 PM 25.3 °F 16.0 °F 14.9 °F 65% 30.40 in 10.0 mi WNW 9.2 mph - N/A   Clear
7:55 PM 24.1 °F 15.2 °F 14.7 °F 68% 30.40 in 10.0 mi West 8.1 mph - N/A   Clear
8:15 PM 24.3 °F 16.3 °F 14.9 °F 68% 30.40 in 10.0 mi WNW 6.9 mph - N/A   Clear
8:35 PM 23.7 °F 15.6 °F 14.7 °F 69% 30.39 in 10.0 mi WNW 6.9 mph - N/A   Clear
8:55 PM 23.2 °F 15.0 °F 14.9 °F 71% 30.39 in 10.0 mi WNW 6.9 mph - N/A   Clear
9:15 PM 23.0 °F 14.7 °F 14.9 °F 71% 30.39 in 10.0 mi WNW 6.9 mph - N/A   Clear
9:35 PM 23.0 °F 14.7 °F 14.9 °F 71% 30.39 in 10.0 mi WNW 6.9 mph - N/A   Clear
9:55 PM 22.5 °F 15.1 °F 14.7 °F 72% 30.39 in 10.0 mi WNW 5.8 mph - N/A   Clear
10:15 PM 22.3 °F 14.9 °F 14.7 °F 73% 30.38 in 10.0 mi WNW 5.8 mph - N/A   Clear
10:55 PM 20.7 °F 11.9 °F 14.0 °F 75% 30.38 in 10.0 mi WNW 6.9 mph - N/A   Clear
11:15 PM 20.3 °F 12.5 °F 14.0 °F 77% 30.38 in 10.0 mi WNW 5.8 mph - N/A   Clear
11:35 PM 19.9 °F 13.4 °F 13.8 °F 77% 30.38 in 10.0 mi WNW 4.6 mph - N/A   Clear
11:55 PM 19.2 °F 12.5 °F 13.5 °F 78% 30.38 in 10.0 mi WNW 4.6 mph - N/A   Clear